sensor_id;sensor_type;location;lat;lon;timestamp;P1;durP1;ratioP1;P2;durP2;ratioP2
48873;SDS011;66155;46.204;5.220;2023-12-20T00:03:09;22.02;;;12.20;;
48873;SDS011;66155;46.204;5.220;2023-12-20T00:08:10;22.00;;;12.43;;
48873;SDS011;66155;46.204;5.220;2023-12-20T00:13:10;25.67;;;13.13;;
48873;SDS011;66155;46.204;5.220;2023-12-20T00:18:11;24.10;;;14.38;;
48873;SDS011;66155;46.204;5.220;2023-12-20T00:23:12;22.30;;;12.75;;
48873;SDS011;66155;46.204;5.220;2023-12-20T00:28:12;23.83;;;13.60;;
48873;SDS011;66155;46.204;5.220;2023-12-20T00:33:14;23.13;;;13.50;;
48873;SDS011;66155;46.204;5.220;2023-12-20T00:38:15;21.15;;;11.95;;
48873;SDS011;66155;46.204;5.220;2023-12-20T00:43:16;26.38;;;13.43;;
48873;SDS011;66155;46.204;5.220;2023-12-20T00:48:16;25.48;;;13.55;;
48873;SDS011;66155;46.204;5.220;2023-12-20T00:53:17;26.65;;;13.07;;
48873;SDS011;66155;46.204;5.220;2023-12-20T00:58:17;24.60;;;13.43;;
48873;SDS011;66155;46.204;5.220;2023-12-20T01:03:17;27.73;;;13.27;;
48873;SDS011;66155;46.204;5.220;2023-12-20T01:08:18;27.45;;;13.55;;
48873;SDS011;66155;46.204;5.220;2023-12-20T01:13:18;33.97;;;16.25;;
48873;SDS011;66155;46.204;5.220;2023-12-20T01:18:19;24.63;;;14.60;;
48873;SDS011;66155;46.204;5.220;2023-12-20T01:23:19;27.00;;;14.70;;
48873;SDS011;66155;46.204;5.220;2023-12-20T01:28:19;25.20;;;14.52;;
48873;SDS011;66155;46.204;5.220;2023-12-20T01:33:20;28.67;;;14.63;;
48873;SDS011;66155;46.204;5.220;2023-12-20T01:38:20;29.60;;;15.55;;
48873;SDS011;66155;46.204;5.220;2023-12-20T01:43:21;31.77;;;15.38;;
48873;SDS011;66155;46.204;5.220;2023-12-20T01:48:21;29.73;;;15.88;;
48873;SDS011;66155;46.204;5.220;2023-12-20T01:53:23;23.40;;;15.00;;
48873;SDS011;66155;46.204;5.220;2023-12-20T01:58:25;31.70;;;16.27;;
48873;SDS011;66155;46.204;5.220;2023-12-20T02:03:26;27.55;;;14.15;;
48873;SDS011;66155;46.204;5.220;2023-12-20T02:08:28;27.90;;;14.38;;
48873;SDS011;66155;46.204;5.220;2023-12-20T02:13:29;27.25;;;15.43;;
48873;SDS011;66155;46.204;5.220;2023-12-20T02:18:30;26.45;;;15.20;;
48873;SDS011;66155;46.204;5.220;2023-12-20T02:23:31;28.50;;;15.98;;
48873;SDS011;66155;46.204;5.220;2023-12-20T02:28:31;27.92;;;15.65;;
48873;SDS011;66155;46.204;5.220;2023-12-20T02:33:32;28.58;;;14.52;;
48873;SDS011;66155;46.204;5.220;2023-12-20T02:38:32;29.80;;;15.50;;
48873;SDS011;66155;46.204;5.220;2023-12-20T02:43:34;26.77;;;14.50;;
48873;SDS011;66155;46.204;5.220;2023-12-20T02:48:34;27.40;;;15.60;;
48873;SDS011;66155;46.204;5.220;2023-12-20T02:53:35;29.80;;;15.70;;
48873;SDS011;66155;46.204;5.220;2023-12-20T02:58:35;26.05;;;14.30;;
48873;SDS011;66155;46.204;5.220;2023-12-20T03:03:35;32.70;;;15.93;;
48873;SDS011;66155;46.204;5.220;2023-12-20T03:08:36;30.65;;;16.70;;
48873;SDS011;66155;46.204;5.220;2023-12-20T03:13:37;30.05;;;15.30;;
48873;SDS011;66155;46.204;5.220;2023-12-20T03:18:37;30.38;;;14.98;;
48873;SDS011;66155;46.204;5.220;2023-12-20T03:23:38;28.63;;;15.07;;
48873;SDS011;66155;46.204;5.220;2023-12-20T03:28:40;29.85;;;15.55;;
48873;SDS011;66155;46.204;5.220;2023-12-20T03:33:40;24.10;;;14.45;;
48873;SDS011;66155;46.204;5.220;2023-12-20T03:38:41;28.38;;;15.80;;
48873;SDS011;66155;46.204;5.220;2023-12-20T03:43:41;28.15;;;15.20;;
48873;SDS011;66155;46.204;5.220;2023-12-20T03:48:42;28.95;;;15.38;;
48873;SDS011;66155;46.204;5.220;2023-12-20T03:53:42;25.65;;;15.43;;
48873;SDS011;66155;46.204;5.220;2023-12-20T03:58:42;27.58;;;14.43;;
48873;SDS011;66155;46.204;5.220;2023-12-20T04:03:43;27.92;;;14.80;;
48873;SDS011;66155;46.204;5.220;2023-12-20T04:08:43;27.60;;;15.10;;
48873;SDS011;66155;46.204;5.220;2023-12-20T04:13:44;29.60;;;14.63;;
48873;SDS011;66155;46.204;5.220;2023-12-20T04:18:44;27.85;;;15.77;;
48873;SDS011;66155;46.204;5.220;2023-12-20T04:23:45;30.17;;;15.45;;
48873;SDS011;66155;46.204;5.220;2023-12-20T04:28:45;28.92;;;15.68;;
48873;SDS011;66155;46.204;5.220;2023-12-20T04:33:46;30.50;;;14.93;;
48873;SDS011;66155;46.204;5.220;2023-12-20T04:38:46;24.60;;;14.10;;
48873;SDS011;66155;46.204;5.220;2023-12-20T04:43:47;29.05;;;15.70;;
48873;SDS011;66155;46.204;5.220;2023-12-20T04:48:47;26.15;;;15.82;;
48873;SDS011;66155;46.204;5.220;2023-12-20T04:53:48;28.02;;;14.90;;
48873;SDS011;66155;46.204;5.220;2023-12-20T04:58:48;26.27;;;14.20;;
48873;SDS011;66155;46.204;5.220;2023-12-20T05:03:48;30.27;;;16.95;;
48873;SDS011;66155;46.204;5.220;2023-12-20T05:08:49;28.95;;;16.42;;
48873;SDS011;66155;46.204;5.220;2023-12-20T05:13:49;23.58;;;14.18;;
48873;SDS011;66155;46.204;5.220;2023-12-20T05:18:50;30.15;;;16.13;;
48873;SDS011;66155;46.204;5.220;2023-12-20T05:23:52;27.30;;;14.50;;
48873;SDS011;66155;46.204;5.220;2023-12-20T05:28:53;27.80;;;15.25;;
48873;SDS011;66155;46.204;5.220;2023-12-20T05:33:53;24.70;;;15.57;;
48873;SDS011;66155;46.204;5.220;2023-12-20T05:38:53;29.25;;;14.82;;
48873;SDS011;66155;46.204;5.220;2023-12-20T05:43:54;23.75;;;15.27;;
48873;SDS011;66155;46.204;5.220;2023-12-20T05:48:54;25.05;;;13.55;;
48873;SDS011;66155;46.204;5.220;2023-12-20T05:53:55;24.13;;;14.43;;
48873;SDS011;66155;46.204;5.220;2023-12-20T05:58:55;28.17;;;15.00;;
48873;SDS011;66155;46.204;5.220;2023-12-20T06:03:56;27.58;;;14.82;;
48873;SDS011;66155;46.204;5.220;2023-12-20T06:08:56;28.58;;;14.90;;
48873;SDS011;66155;46.204;5.220;2023-12-20T06:13:57;26.27;;;14.20;;
48873;SDS011;66155;46.204;5.220;2023-12-20T06:18:57;24.35;;;14.23;;
48873;SDS011;66155;46.204;5.220;2023-12-20T06:24:01;30.77;;;15.75;;
48873;SDS011;66155;46.204;5.220;2023-12-20T06:29:01;24.40;;;15.20;;
48873;SDS011;66155;46.204;5.220;2023-12-20T06:34:02;29.98;;;16.02;;
48873;SDS011;66155;46.204;5.220;2023-12-20T06:39:03;25.45;;;14.40;;
48873;SDS011;66155;46.204;5.220;2023-12-20T06:44:04;24.48;;;14.65;;
48873;SDS011;66155;46.204;5.220;2023-12-20T06:49:05;26.85;;;14.48;;
48873;SDS011;66155;46.204;5.220;2023-12-20T06:54:05;28.85;;;15.18;;
48873;SDS011;66155;46.204;5.220;2023-12-20T06:59:06;24.38;;;14.40;;
48873;SDS011;66155;46.204;5.220;2023-12-20T07:04:07;27.48;;;15.75;;
48873;SDS011;66155;46.204;5.220;2023-12-20T07:09:07;28.60;;;15.73;;
48873;SDS011;66155;46.204;5.220;2023-12-20T07:14:07;29.17;;;13.90;;
48873;SDS011;66155;46.204;5.220;2023-12-20T07:19:08;26.35;;;15.38;;
48873;SDS011;66155;46.204;5.220;2023-12-20T07:24:09;27.20;;;16.42;;
48873;SDS011;66155;46.204;5.220;2023-12-20T07:29:09;27.27;;;14.43;;
48873;SDS011;66155;46.204;5.220;2023-12-20T07:34:10;26.67;;;15.55;;
48873;SDS011;66155;46.204;5.220;2023-12-20T07:39:10;25.92;;;15.02;;
48873;SDS011;66155;46.204;5.220;2023-12-20T07:44:10;24.38;;;15.73;;
48873;SDS011;66155;46.204;5.220;2023-12-20T07:49:11;28.50;;;14.20;;
48873;SDS011;66155;46.204;5.220;2023-12-20T07:54:12;25.77;;;14.05;;
48873;SDS011;66155;46.204;5.220;2023-12-20T07:59:12;27.40;;;15.35;;
48873;SDS011;66155;46.204;5.220;2023-12-20T08:04:13;24.05;;;14.75;;
48873;SDS011;66155;46.204;5.220;2023-12-20T08:09:13;26.83;;;14.13;;
48873;SDS011;66155;46.204;5.220;2023-12-20T08:14:14;29.35;;;15.15;;
48873;SDS011;66155;46.204;5.220;2023-12-20T08:19:15;24.33;;;14.43;;
48873;SDS011;66155;46.204;5.220;2023-12-20T08:24:15;26.65;;;14.00;;
48873;SDS011;66155;46.204;5.220;2023-12-20T08:29:16;26.98;;;14.57;;
48873;SDS011;66155;46.204;5.220;2023-12-20T08:34:16;26.73;;;14.80;;
48873;SDS011;66155;46.204;5.220;2023-12-20T08:39:17;27.85;;;14.23;;
48873;SDS011;66155;46.204;5.220;2023-12-20T08:44:17;29.45;;;15.32;;
48873;SDS011;66155;46.204;5.220;2023-12-20T08:49:18;33.40;;;15.90;;
48873;SDS011;66155;46.204;5.220;2023-12-20T08:54:18;28.63;;;16.83;;
48873;SDS011;66155;46.204;5.220;2023-12-20T08:59:19;28.95;;;17.65;;
48873;SDS011;66155;46.204;5.220;2023-12-20T09:04:20;31.05;;;14.52;;
48873;SDS011;66155;46.204;5.220;2023-12-20T09:09:20;26.60;;;13.98;;
48873;SDS011;66155;46.204;5.220;2023-12-20T09:14:21;26.17;;;15.20;;
48873;SDS011;66155;46.204;5.220;2023-12-20T09:19:21;22.20;;;13.52;;
48873;SDS011;66155;46.204;5.220;2023-12-20T09:24:23;25.15;;;14.50;;
48873;SDS011;66155;46.204;5.220;2023-12-20T09:29:23;21.95;;;14.25;;
48873;SDS011;66155;46.204;5.220;2023-12-20T09:34:24;23.75;;;12.25;;
48873;SDS011;66155;46.204;5.220;2023-12-20T09:39:25;22.15;;;14.20;;
48873;SDS011;66155;46.204;5.220;2023-12-20T09:44:26;22.73;;;15.98;;
48873;SDS011;66155;46.204;5.220;2023-12-20T09:49:27;24.05;;;14.60;;
48873;SDS011;66155;46.204;5.220;2023-12-20T09:54:28;22.48;;;14.77;;
48873;SDS011;66155;46.204;5.220;2023-12-20T09:59:29;25.40;;;15.07;;
48873;SDS011;66155;46.204;5.220;2023-12-20T10:04:29;22.75;;;14.63;;
48873;SDS011;66155;46.204;5.220;2023-12-20T10:09:33;27.48;;;13.43;;
48873;SDS011;66155;46.204;5.220;2023-12-20T10:14:34;21.67;;;12.98;;
48873;SDS011;66155;46.204;5.220;2023-12-20T10:19:35;20.35;;;12.48;;
48873;SDS011;66155;46.204;5.220;2023-12-20T10:24:35;22.30;;;13.02;;
48873;SDS011;66155;46.204;5.220;2023-12-20T10:29:37;17.27;;;11.90;;
48873;SDS011;66155;46.204;5.220;2023-12-20T10:34:38;16.10;;;11.18;;
48873;SDS011;66155;46.204;5.220;2023-12-20T10:39:39;22.95;;;13.05;;
48873;SDS011;66155;46.204;5.220;2023-12-20T10:44:42;18.40;;;11.82;;
48873;SDS011;66155;46.204;5.220;2023-12-20T10:49:43;16.58;;;10.38;;
48873;SDS011;66155;46.204;5.220;2023-12-20T10:54:44;13.77;;;10.00;;
48873;SDS011;66155;46.204;5.220;2023-12-20T10:59:45;16.00;;;12.43;;
48873;SDS011;66155;46.204;5.220;2023-12-20T11:04:53;17.13;;;9.07;;
48873;SDS011;66155;46.204;5.220;2023-12-20T11:10:00;11.30;;;7.30;;
48873;SDS011;66155;46.204;5.220;2023-12-20T11:15:10;7.70;;;6.47;;
48873;SDS011;66155;46.204;5.220;2023-12-20T11:20:12;9.40;;;6.72;;
48873;SDS011;66155;46.204;5.220;2023-12-20T11:25:13;7.93;;;6.22;;
48873;SDS011;66155;46.204;5.220;2023-12-20T11:30:13;8.30;;;6.40;;
48873;SDS011;66155;46.204;5.220;2023-12-20T11:40:15;8.23;;;6.30;;
48873;SDS011;66155;46.204;5.220;2023-12-20T11:45:21;8.18;;;6.32;;
48873;SDS011;66155;46.204;5.220;2023-12-20T11:50:24;8.30;;;5.70;;
48873;SDS011;66155;46.204;5.220;2023-12-20T11:55:24;7.40;;;6.35;;
48873;SDS011;66155;46.204;5.220;2023-12-20T12:00:25;8.10;;;6.68;;
48873;SDS011;66155;46.204;5.220;2023-12-20T12:05:26;8.65;;;6.50;;
48873;SDS011;66155;46.204;5.220;2023-12-20T12:10:26;5.78;;;5.28;;
48873;SDS011;66155;46.204;5.220;2023-12-20T12:15:26;7.10;;;5.40;;
48873;SDS011;66155;46.204;5.220;2023-12-20T12:20:27;8.40;;;6.43;;
48873;SDS011;66155;46.204;5.220;2023-12-20T12:25:28;8.13;;;5.38;;
48873;SDS011;66155;46.204;5.220;2023-12-20T12:30:30;7.60;;;5.78;;
48873;SDS011;66155;46.204;5.220;2023-12-20T12:35:31;7.45;;;6.72;;
48873;SDS011;66155;46.204;5.220;2023-12-20T12:40:34;7.03;;;6.32;;
48873;SDS011;66155;46.204;5.220;2023-12-20T12:45:36;7.63;;;5.82;;
48873;SDS011;66155;46.204;5.220;2023-12-20T12:50:36;8.10;;;5.72;;
48873;SDS011;66155;46.204;5.220;2023-12-20T12:55:37;7.22;;;5.68;;
48873;SDS011;66155;46.204;5.220;2023-12-20T13:00:37;8.27;;;6.30;;
48873;SDS011;66155;46.204;5.220;2023-12-20T13:05:37;10.40;;;5.93;;
48873;SDS011;66155;46.204;5.220;2023-12-20T13:10:38;8.68;;;6.25;;
48873;SDS011;66155;46.204;5.220;2023-12-20T13:15:38;6.65;;;5.68;;
48873;SDS011;66155;46.204;5.220;2023-12-20T13:20:39;8.75;;;6.40;;
48873;SDS011;66155;46.204;5.220;2023-12-20T13:25:40;5.80;;;5.20;;
48873;SDS011;66155;46.204;5.220;2023-12-20T13:30:41;9.73;;;6.03;;
48873;SDS011;66155;46.204;5.220;2023-12-20T13:35:41;5.68;;;4.80;;
48873;SDS011;66155;46.204;5.220;2023-12-20T13:40:43;6.22;;;5.65;;
48873;SDS011;66155;46.204;5.220;2023-12-20T13:45:44;7.70;;;5.45;;
48873;SDS011;66155;46.204;5.220;2023-12-20T13:50:44;6.83;;;6.23;;
48873;SDS011;66155;46.204;5.220;2023-12-20T13:55:45;5.47;;;5.05;;
48873;SDS011;66155;46.204;5.220;2023-12-20T14:00:45;5.65;;;5.05;;
48873;SDS011;66155;46.204;5.220;2023-12-20T14:05:46;9.25;;;5.70;;
48873;SDS011;66155;46.204;5.220;2023-12-20T14:10:46;7.38;;;4.88;;
48873;SDS011;66155;46.204;5.220;2023-12-20T14:15:47;6.88;;;4.70;;
48873;SDS011;66155;46.204;5.220;2023-12-20T14:20:49;6.60;;;4.85;;
48873;SDS011;66155;46.204;5.220;2023-12-20T14:25:50;6.35;;;5.10;;
48873;SDS011;66155;46.204;5.220;2023-12-20T14:30:52;6.15;;;3.78;;
48873;SDS011;66155;46.204;5.220;2023-12-20T14:35:52;7.70;;;4.97;;
48873;SDS011;66155;46.204;5.220;2023-12-20T14:40:53;5.40;;;4.90;;
48873;SDS011;66155;46.204;5.220;2023-12-20T14:45:53;5.93;;;4.68;;
48873;SDS011;66155;46.204;5.220;2023-12-20T14:50:54;8.05;;;5.00;;
48873;SDS011;66155;46.204;5.220;2023-12-20T14:55:54;6.72;;;6.00;;
48873;SDS011;66155;46.204;5.220;2023-12-20T15:00:55;5.15;;;4.40;;
48873;SDS011;66155;46.204;5.220;2023-12-20T15:05:56;5.60;;;4.10;;
48873;SDS011;66155;46.204;5.220;2023-12-20T15:10:58;12.48;;;4.30;;
48873;SDS011;66155;46.204;5.220;2023-12-20T15:15:59;7.20;;;3.95;;
48873;SDS011;66155;46.204;5.220;2023-12-20T15:20:59;4.38;;;4.07;;
48873;SDS011;66155;46.204;5.220;2023-12-20T15:26:00;5.68;;;5.10;;
48873;SDS011;66155;46.204;5.220;2023-12-20T15:31:00;6.95;;;4.90;;
48873;SDS011;66155;46.204;5.220;2023-12-20T15:36:01;8.27;;;4.70;;
48873;SDS011;66155;46.204;5.220;2023-12-20T15:41:01;8.70;;;4.60;;
48873;SDS011;66155;46.204;5.220;2023-12-20T15:46:02;5.82;;;4.68;;
48873;SDS011;66155;46.204;5.220;2023-12-20T15:51:07;6.72;;;4.20;;
48873;SDS011;66155;46.204;5.220;2023-12-20T15:56:08;9.57;;;8.10;;
48873;SDS011;66155;46.204;5.220;2023-12-20T16:01:09;4.28;;;3.88;;
48873;SDS011;66155;46.204;5.220;2023-12-20T16:06:09;5.65;;;4.80;;
48873;SDS011;66155;46.204;5.220;2023-12-20T16:11:11;10.45;;;4.53;;
48873;SDS011;66155;46.204;5.220;2023-12-20T16:16:12;5.18;;;4.68;;
48873;SDS011;66155;46.204;5.220;2023-12-20T16:21:12;6.85;;;4.57;;
48873;SDS011;66155;46.204;5.220;2023-12-20T16:26:14;5.78;;;5.28;;
48873;SDS011;66155;46.204;5.220;2023-12-20T16:31:14;4.30;;;3.90;;
48873;SDS011;66155;46.204;5.220;2023-12-20T16:36:15;4.65;;;4.03;;
48873;SDS011;66155;46.204;5.220;2023-12-20T16:41:16;5.38;;;4.50;;
48873;SDS011;66155;46.204;5.220;2023-12-20T16:46:16;5.90;;;4.70;;
48873;SDS011;66155;46.204;5.220;2023-12-20T16:51:17;5.10;;;4.53;;
48873;SDS011;66155;46.204;5.220;2023-12-20T16:56:17;7.70;;;4.75;;
48873;SDS011;66155;46.204;5.220;2023-12-20T17:01:18;11.43;;;5.20;;
48873;SDS011;66155;46.204;5.220;2023-12-20T17:06:19;7.95;;;5.40;;
48873;SDS011;66155;46.204;5.220;2023-12-20T17:11:20;12.20;;;5.90;;
48873;SDS011;66155;46.204;5.220;2023-12-20T17:16:23;8.00;;;6.30;;
48873;SDS011;66155;46.204;5.220;2023-12-20T17:21:23;12.40;;;8.45;;
48873;SDS011;66155;46.204;5.220;2023-12-20T17:26:24;12.15;;;7.55;;
48873;SDS011;66155;46.204;5.220;2023-12-20T17:31:25;25.38;;;12.80;;
48873;SDS011;66155;46.204;5.220;2023-12-20T17:36:25;25.05;;;14.20;;
48873;SDS011;66155;46.204;5.220;2023-12-20T17:41:26;20.93;;;11.33;;
48873;SDS011;66155;46.204;5.220;2023-12-20T17:46:27;19.73;;;9.98;;
48873;SDS011;66155;46.204;5.220;2023-12-20T17:51:27;16.60;;;7.97;;
48873;SDS011;66155;46.204;5.220;2023-12-20T17:56:28;17.52;;;10.15;;
48873;SDS011;66155;46.204;5.220;2023-12-20T18:01:29;15.82;;;8.20;;
48873;SDS011;66155;46.204;5.220;2023-12-20T18:06:30;12.82;;;7.82;;
48873;SDS011;66155;46.204;5.220;2023-12-20T18:11:30;19.05;;;8.65;;
48873;SDS011;66155;46.204;5.220;2023-12-20T18:16:31;16.85;;;9.57;;
48873;SDS011;66155;46.204;5.220;2023-12-20T18:21:31;16.50;;;8.55;;
48873;SDS011;66155;46.204;5.220;2023-12-20T18:26:31;15.60;;;8.38;;
48873;SDS011;66155;46.204;5.220;2023-12-20T18:31:35;13.75;;;7.22;;
48873;SDS011;66155;46.204;5.220;2023-12-20T18:36:36;12.77;;;6.93;;
48873;SDS011;66155;46.204;5.220;2023-12-20T18:41:36;14.95;;;7.82;;
48873;SDS011;66155;46.204;5.220;2023-12-20T18:46:37;11.57;;;7.43;;
48873;SDS011;66155;46.204;5.220;2023-12-20T18:51:39;13.77;;;6.53;;
48873;SDS011;66155;46.204;5.220;2023-12-20T18:56:39;12.45;;;7.55;;
48873;SDS011;66155;46.204;5.220;2023-12-20T19:01:42;12.85;;;6.65;;
48873;SDS011;66155;46.204;5.220;2023-12-20T19:06:43;14.57;;;9.52;;
48873;SDS011;66155;46.204;5.220;2023-12-20T19:11:44;18.48;;;11.90;;
48873;SDS011;66155;46.204;5.220;2023-12-20T19:16:44;21.25;;;12.77;;
48873;SDS011;66155;46.204;5.220;2023-12-20T19:21:44;25.20;;;13.10;;
48873;SDS011;66155;46.204;5.220;2023-12-20T19:26:46;25.65;;;15.65;;
48873;SDS011;66155;46.204;5.220;2023-12-20T19:31:47;24.85;;;14.77;;
48873;SDS011;66155;46.204;5.220;2023-12-20T19:36:49;18.20;;;12.40;;
48873;SDS011;66155;46.204;5.220;2023-12-20T19:41:49;22.80;;;12.77;;
48873;SDS011;66155;46.204;5.220;2023-12-20T19:46:49;22.65;;;12.75;;
48873;SDS011;66155;46.204;5.220;2023-12-20T19:51:50;16.17;;;11.27;;
48873;SDS011;66155;46.204;5.220;2023-12-20T19:56:51;19.40;;;11.70;;
48873;SDS011;66155;46.204;5.220;2023-12-20T20:01:51;15.38;;;11.88;;
48873;SDS011;66155;46.204;5.220;2023-12-20T20:06:54;21.00;;;11.57;;
48873;SDS011;66155;46.204;5.220;2023-12-20T20:11:55;17.52;;;12.00;;
48873;SDS011;66155;46.204;5.220;2023-12-20T20:16:56;16.75;;;11.23;;
48873;SDS011;66155;46.204;5.220;2023-12-20T20:21:56;16.38;;;10.65;;
48873;SDS011;66155;46.204;5.220;2023-12-20T20:26:57;19.90;;;12.32;;
48873;SDS011;66155;46.204;5.220;2023-12-20T20:31:58;17.35;;;11.43;;
48873;SDS011;66155;46.204;5.220;2023-12-20T20:36:58;18.25;;;11.60;;
48873;SDS011;66155;46.204;5.220;2023-12-20T20:41:59;15.82;;;10.73;;
48873;SDS011;66155;46.204;5.220;2023-12-20T20:47:01;12.70;;;9.27;;
48873;SDS011;66155;46.204;5.220;2023-12-20T20:52:01;16.65;;;9.50;;
48873;SDS011;66155;46.204;5.220;2023-12-20T20:57:02;15.95;;;10.18;;
48873;SDS011;66155;46.204;5.220;2023-12-20T21:02:02;17.70;;;10.20;;
48873;SDS011;66155;46.204;5.220;2023-12-20T21:07:03;12.57;;;8.38;;
48873;SDS011;66155;46.204;5.220;2023-12-20T21:12:04;14.73;;;8.40;;
48873;SDS011;66155;46.204;5.220;2023-12-20T21:17:05;16.48;;;9.90;;
48873;SDS011;66155;46.204;5.220;2023-12-20T21:22:06;14.57;;;9.30;;
48873;SDS011;66155;46.204;5.220;2023-12-20T21:27:06;12.65;;;9.18;;
48873;SDS011;66155;46.204;5.220;2023-12-20T21:32:10;15.30;;;7.82;;
48873;SDS011;66155;46.204;5.220;2023-12-20T21:37:10;11.65;;;7.70;;
48873;SDS011;66155;46.204;5.220;2023-12-20T21:42:10;14.00;;;7.65;;
48873;SDS011;66155;46.204;5.220;2023-12-20T21:47:12;9.52;;;6.68;;
48873;SDS011;66155;46.204;5.220;2023-12-20T21:52:13;10.18;;;6.55;;
48873;SDS011;66155;46.204;5.220;2023-12-20T21:57:14;6.93;;;6.00;;
48873;SDS011;66155;46.204;5.220;2023-12-20T22:02:18;7.35;;;6.07;;
48873;SDS011;66155;46.204;5.220;2023-12-20T22:07:18;9.95;;;6.80;;
48873;SDS011;66155;46.204;5.220;2023-12-20T22:12:19;13.75;;;6.75;;
48873;SDS011;66155;46.204;5.220;2023-12-20T22:17:19;9.60;;;6.88;;
48873;SDS011;66155;46.204;5.220;2023-12-20T22:22:20;8.07;;;6.10;;
48873;SDS011;66155;46.204;5.220;2023-12-20T22:27:20;8.23;;;6.50;;
48873;SDS011;66155;46.204;5.220;2023-12-20T22:32:21;6.47;;;5.50;;
48873;SDS011;66155;46.204;5.220;2023-12-20T22:37:22;6.35;;;4.95;;
48873;SDS011;66155;46.204;5.220;2023-12-20T22:42:22;7.43;;;5.72;;
48873;SDS011;66155;46.204;5.220;2023-12-20T22:47:23;9.85;;;5.45;;
48873;SDS011;66155;46.204;5.220;2023-12-20T22:52:26;7.22;;;5.82;;
48873;SDS011;66155;46.204;5.220;2023-12-20T22:57:26;7.60;;;5.47;;
48873;SDS011;66155;46.204;5.220;2023-12-20T23:02:27;7.07;;;5.30;;
48873;SDS011;66155;46.204;5.220;2023-12-20T23:07:27;6.80;;;4.43;;
48873;SDS011;66155;46.204;5.220;2023-12-20T23:12:28;7.43;;;4.28;;
48873;SDS011;66155;46.204;5.220;2023-12-20T23:17:28;12.23;;;5.95;;
48873;SDS011;66155;46.204;5.220;2023-12-20T23:22:29;6.13;;;5.00;;
48873;SDS011;66155;46.204;5.220;2023-12-20T23:27:29;7.25;;;5.18;;
48873;SDS011;66155;46.204;5.220;2023-12-20T23:32:30;6.75;;;5.70;;
48873;SDS011;66155;46.204;5.220;2023-12-20T23:37:30;9.70;;;5.68;;
48873;SDS011;66155;46.204;5.220;2023-12-20T23:42:31;7.70;;;6.18;;
48873;SDS011;66155;46.204;5.220;2023-12-20T23:47:31;6.43;;;5.45;;
48873;SDS011;66155;46.204;5.220;2023-12-20T23:52:32;7.53;;;5.20;;
48873;SDS011;66155;46.204;5.220;2023-12-20T23:57:32;13.52;;;6.88;;
